Time;durP1;ratioP1;P1;durP2;ratioP2;P2;SDS_P1;SDS_P2;PMS_P1;PMS_P2;Temp;Humidity;BMP_temperature;BMP_pressure;BME280_temperature;BME280_humidity;BME280_pressure;Samples;Min_cycle;Max_cycle;Signal;HPM_P1;HPM_P2
2023/03/08 00:01:56;;;;;;;9.17;3.50;;;;;;;-36.70;100.00;92193.16;4212037;28;20325;-70
2023/03/08 00:04:22;;;;;;;8.50;3.80;;;;;;;-36.71;100.00;92196.50;4207537;28;22486;-69
2023/03/08 00:06:49;;;;;;;6.90;3.57;;;;;;;-36.77;100.00;92192.66;4209461;28;20302;-69
2023/03/08 00:09:15;;;;;;;10.27;3.90;;;;;;;-36.67;100.00;92190.56;4214234;28;20245;-70
2023/03/08 00:11:42;;;;;;;11.43;4.17;;;;;;;-36.78;100.00;92194.31;4216090;28;23462;-72
2023/03/08 00:14:08;;;;;;;8.73;4.00;;;;;;;-36.86;100.00;92195.56;4207696;28;20423;-71
2023/03/08 00:16:35;;;;;;;9.77;4.50;;;;;;;-36.79;100.00;92182.13;4200756;28;20383;-72
2023/03/08 00:19:01;;;;;;;11.40;4.43;;;;;;;-36.86;100.00;92179.16;4214742;28;20247;-71
2023/03/08 00:21:28;;;;;;;12.20;4.43;;;;;;;-36.88;100.00;92180.91;4216809;28;21340;-73
2023/03/08 00:23:55;;;;;;;12.07;4.73;;;;;;;-36.89;100.00;92179.28;4209635;28;20286;-69
2023/03/08 00:26:22;;;;;;;12.63;5.63;;;;;;;-36.89;100.00;92179.28;4217357;28;21256;-70
2023/03/08 00:28:48;;;;;;;11.30;5.13;;;;;;;-36.93;100.00;92172.94;4209316;28;20235;-73
2023/03/08 00:31:15;;;;;;;11.33;5.67;;;;;;;-36.96;100.00;92173.06;4220042;28;22484;-73
2023/03/08 00:33:42;;;;;;;11.63;6.07;;;;;;;-36.92;100.00;92179.44;4224625;28;20326;-72
2023/03/08 00:36:18;;;;;;;12.60;6.37;;;;;;;-36.97;100.00;92181.31;4223669;28;20297;-70
2023/03/08 00:38:46;;;;;;;12.53;6.27;;;;;;;-36.98;100.00;92179.72;4238646;28;20246;-70
2023/03/08 00:41:13;;;;;;;13.97;6.57;;;;;;;-37.03;100.00;92181.59;4224849;28;20330;-69
2023/03/08 00:43:41;;;;;;;10.73;5.33;;;;;;;-37.00;100.00;92188.84;4234539;28;21049;-70
2023/03/08 00:46:08;;;;;;;11.80;5.47;;;;;;;-37.01;100.00;92185.56;4224149;28;20808;-69
2023/03/08 00:48:34;;;;;;;11.40;4.73;;;;;;;-37.05;100.00;92188.28;4223775;28;20227;-70
2023/03/08 00:51:02;;;;;;;11.30;4.37;;;;;;;-37.14;100.00;92183.78;4219449;28;20286;-70
2023/03/08 00:53:29;;;;;;;8.43;4.20;;;;;;;-37.13;100.00;92181.25;4229916;28;20417;-73
2023/03/08 00:55:57;;;;;;;10.70;4.20;;;;;;;-37.19;100.00;92172.53;4227413;28;20231;-69
2023/03/08 00:58:26;;;;;;;11.23;4.53;;;;;;;-37.17;100.00;92179.03;4209391;28;22411;-70
2023/03/08 01:00:53;;;;;;;12.97;4.23;;;;;;;-37.18;100.00;92178.22;4224036;28;20387;-69
2023/03/08 01:03:23;;;;;;;10.70;4.03;;;;;;;-37.25;100.00;92165.44;4218456;28;20461;-70
2023/03/08 01:05:52;;;;;;;8.47;4.00;;;;;;;-37.31;100.00;92163.25;4233164;28;20512;-68
2023/03/08 01:08:19;;;;;;;13.20;5.47;;;;;;;-37.30;100.00;92155.03;4228423;28;20700;-69
2023/03/08 01:10:50;;;;;;;7.93;3.70;;;;;;;-37.37;100.00;92157.88;4220551;28;20681;-69
2023/03/08 01:13:18;;;;;;;8.40;4.00;;;;;;;-37.32;100.00;92164.13;4233262;28;20235;-71
2023/03/08 01:15:44;;;;;;;23.80;4.87;;;;;;;-37.36;100.00;92150.41;4224256;28;20334;-69
2023/03/08 01:18:11;;;;;;;13.60;4.90;;;;;;;-37.36;100.00;92152.88;4200396;28;20425;-68
2023/03/08 01:20:37;;;;;;;8.63;4.00;;;;;;;-37.40;100.00;92151.44;4223580;28;20251;-69
2023/03/08 01:23:04;;;;;;;13.57;5.07;;;;;;;-37.38;100.00;92143.97;4218026;28;20453;-70
2023/03/08 01:25:30;;;;;;;11.97;4.07;;;;;;;-37.30;100.00;92150.13;4229713;28;20239;-68
2023/03/08 01:27:57;;;;;;;10.53;4.73;;;;;;;-37.33;100.00;92142.91;4223266;28;20238;-70
2023/03/08 01:30:24;;;;;;;10.20;3.60;;;;;;;-37.33;100.00;92145.38;4219454;28;20667;-68
2023/03/08 01:32:50;;;;;;;12.03;4.13;;;;;;;-37.33;100.00;92140.47;4222730;28;20285;-70
2023/03/08 01:35:17;;;;;;;11.33;3.60;;;;;;;-37.12;100.00;92132.94;4225325;28;20232;-70
2023/03/08 01:37:44;;;;;;;9.50;3.03;;;;;;;-37.09;100.00;92142.66;4227995;28;20426;-70
2023/03/08 01:40:17;;;;;;;10.27;3.33;;;;;;;-37.09;100.00;92131.16;4227748;28;20231;-69
2023/03/08 01:42:44;;;;;;;9.83;3.23;;;;;;;-37.08;100.00;92125.38;4211030;28;20418;-73
2023/03/08 01:45:48;;;;;;;10.30;3.50;;;;;;;-37.08;100.00;92139.31;4229326;28;20335;-70
2023/03/08 01:48:19;;;;;;;11.97;4.03;;;;;;;-37.24;100.00;92136.78;4239085;28;24419;-69
2023/03/08 01:50:46;;;;;;;12.27;3.40;;;;;;;-37.13;100.00;92146.09;4202367;28;22246;-70
2023/03/08 01:53:13;;;;;;;8.20;3.07;;;;;;;-37.14;100.00;92155.13;4226706;28;20239;-71
2023/03/08 01:55:41;;;;;;;14.20;3.40;;;;;;;-37.09;100.00;92143.44;4212747;28;20352;-69
2023/03/08 01:58:07;;;;;;;11.17;3.20;;;;;;;-37.13;100.00;92141.97;4209289;28;20314;-69
2023/03/08 02:00:36;;;;;;;10.70;2.63;;;;;;;-37.17;100.00;92137.28;4227023;28;20245;-68
2023/03/08 02:03:07;;;;;;;8.23;2.90;;;;;;;-37.25;100.00;92148.25;4225708;28;20314;-71
2023/03/08 02:05:42;;;;;;;9.93;2.60;;;;;;;-37.36;100.00;92147.94;4211007;28;20860;-70
2023/03/08 02:08:08;;;;;;;15.57;3.10;;;;;;;-37.34;100.00;92147.91;4207050;28;20730;-70
2023/03/08 02:10:35;;;;;;;8.20;2.90;;;;;;;-37.20;100.00;92148.84;4229783;28;20775;-72
2023/03/08 02:13:03;;;;;;;10.63;2.57;;;;;;;-37.34;100.00;92143.78;4225312;28;20329;-71
2023/03/08 02:15:30;;;;;;;6.13;2.33;;;;;;;-37.33;100.00;92140.47;4227478;28;20649;-68
2023/03/08 02:17:56;;;;;;;6.40;2.20;;;;;;;-37.33;100.00;92152.75;4216569;28;23092;-70
2023/03/08 02:20:28;;;;;;;4.83;2.30;;;;;;;-37.38;100.00;92148.91;4228497;28;20315;-72
2023/03/08 02:22:55;;;;;;;6.43;2.03;;;;;;;-37.40;100.00;92136.72;4222590;28;20259;-70
2023/03/08 02:25:23;;;;;;;8.77;2.20;;;;;;;-37.42;100.00;92144.13;4235170;28;20236;-70
2023/03/08 02:27:53;;;;;;;11.87;2.23;;;;;;;-37.53;100.00;92160.25;4229269;28;22026;-69
2023/03/08 02:30:24;;;;;;;6.40;1.80;;;;;;;-37.42;100.00;92155.63;4226850;28;21196;-70
2023/03/08 02:32:51;;;;;;;8.23;2.20;;;;;;;-37.46;100.00;92159.06;4212272;28;26349;-70
2023/03/08 02:35:18;;;;;;;4.40;1.83;;;;;;;-37.44;100.00;92165.50;4208510;28;22425;-69
2023/03/08 02:37:44;;;;;;;6.53;2.23;;;;;;;-37.45;100.00;92168.00;4226118;28;21084;-68
2023/03/08 02:40:12;;;;;;;16.67;2.30;;;;;;;-37.45;100.00;92163.09;4205127;28;20245;-70
2023/03/08 02:42:38;;;;;;;10.77;2.17;;;;;;;-37.32;100.00;92176.41;4241029;28;21968;-70
2023/03/08 02:45:06;;;;;;;6.00;2.00;;;;;;;-37.37;100.00;92173.38;4229939;28;21766;-73
2023/03/08 02:47:33;;;;;;;6.83;1.97;;;;;;;-37.33;100.00;92169.94;4227050;28;20380;-71
2023/03/08 02:49:59;;;;;;;5.70;2.10;;;;;;;-37.34;100.00;92167.53;4222182;28;20239;-71
2023/03/08 02:52:26;;;;;;;9.07;2.40;;;;;;;-37.32;100.00;92171.50;4232071;28;20247;-71
2023/03/08 02:54:52;;;;;;;5.17;2.10;;;;;;;-37.31;100.00;92179.66;4209258;28;20401;-70
2023/03/08 02:57:20;;;;;;;8.60;2.33;;;;;;;-37.43;100.00;92174.44;4214461;28;20242;-69
2023/03/08 02:59:46;;;;;;;10.47;2.60;;;;;;;-37.32;100.00;92175.63;4210171;28;20330;-70
2023/03/08 03:02:13;;;;;;;6.30;2.37;;;;;;;-37.29;100.00;92171.34;4226025;28;20766;-68
2023/03/08 03:04:40;;;;;;;10.47;2.53;;;;;;;-37.35;100.00;92186.38;4221315;28;20409;-70
2023/03/08 03:07:06;;;;;;;11.70;2.50;;;;;;;-37.30;100.00;92194.31;4230591;28;23109;-72
2023/03/08 03:09:35;;;;;;;4.97;2.63;;;;;;;-37.27;100.00;92184.34;4226978;28;20227;-68
2023/03/08 03:12:02;;;;;;;11.30;2.67;;;;;;;-37.06;100.00;92186.69;4217875;28;20307;-69
2023/03/08 03:14:31;;;;;;;8.33;2.23;;;;;;;-37.05;100.00;92203.00;4235338;28;22751;-73
2023/03/08 03:16:57;;;;;;;5.93;2.17;;;;;;;-37.09;100.00;92204.81;4232726;28;20421;-68
2023/03/08 03:19:24;;;;;;;5.90;2.27;;;;;;;-37.20;100.00;92205.31;4225670;28;22969;-69
2023/03/08 03:21:50;;;;;;;7.47;2.10;;;;;;;-37.21;100.00;92202.94;4231602;28;25530;-70
2023/03/08 03:24:17;;;;;;;6.43;2.53;;;;;;;-37.23;100.00;92210.38;4229538;28;20239;-70
2023/03/08 03:26:43;;;;;;;9.23;3.23;;;;;;;-37.29;100.00;92200.81;4227115;28;21279;-70
2023/03/08 03:29:10;;;;;;;10.07;3.40;;;;;;;-37.33;100.00;92199.38;4220060;28;20351;-69
2023/03/08 03:31:36;;;;;;;5.50;2.90;;;;;;;-37.34;100.00;92201.91;4215257;28;20765;-68
2023/03/08 03:34:03;;;;;;;8.63;3.40;;;;;;;-37.30;100.00;92209.06;4215815;28;20938;-72
2023/03/08 03:36:29;;;;;;;7.17;3.20;;;;;;;-37.32;100.00;92205.09;4218396;28;20242;-69
2023/03/08 03:38:57;;;;;;;10.63;3.20;;;;;;;-37.28;100.00;92212.25;4223192;28;20244;-68
2023/03/08 03:41:23;;;;;;;7.10;3.70;;;;;;;-37.31;100.00;92209.91;4214960;28;20667;-68
2023/03/08 03:43:50;;;;;;;9.93;3.60;;;;;;;-37.29;100.00;92209.84;4211975;28;20425;-71
2023/03/08 03:46:19;;;;;;;14.97;4.50;;;;;;;-37.31;100.00;92209.91;4222948;28;20553;-71
2023/03/08 03:48:46;;;;;;;10.93;4.90;;;;;;;-37.35;100.00;92215.84;4214626;28;20231;-71
2023/03/08 03:51:15;;;;;;;9.73;4.87;;;;;;;-37.34;100.00;92217.41;4207457;28;20242;-68
2023/03/08 03:53:42;;;;;;;13.60;5.07;;;;;;;-37.36;100.00;92224.03;4215395;28;20242;-72
2023/03/08 03:56:20;;;;;;;10.33;5.27;;;;;;;-37.33;100.00;92218.19;4215960;28;23167;-70
2023/03/08 03:58:48;;;;;;;12.17;5.60;;;;;;;-37.36;100.00;92228.94;4220030;28;20253;-70
2023/03/08 04:01:19;;;;;;;17.37;6.20;;;;;;;-37.30;100.00;92228.69;4210917;28;20369;-71
2023/03/08 04:03:47;;;;;;;14.47;6.10;;;;;;;-37.32;100.00;92230.41;4217467;28;21398;-69
2023/03/08 04:06:16;;;;;;;15.27;6.47;;;;;;;-37.33;100.00;92237.84;4198512;28;20231;-69
2023/03/08 04:08:43;;;;;;;14.00;6.63;;;;;;;-37.32;100.00;92235.31;4213663;28;20395;-69
2023/03/08 04:11:12;;;;;;;14.93;6.57;;;;;;;-37.33;100.00;92236.19;4214200;28;20375;-69
2023/03/08 04:13:39;;;;;;;16.93;7.00;;;;;;;-37.31;100.00;92236.13;4216945;28;20243;-71
2023/03/08 04:16:13;;;;;;;18.70;7.10;;;;;;;-37.33;100.00;92233.75;4213294;28;25689;-69
2023/03/08 04:18:40;;;;;;;19.70;7.57;;;;;;;-37.34;100.00;92231.34;4214837;28;20236;-72
2023/03/08 04:21:07;;;;;;;17.00;7.23;;;;;;;-37.35;100.00;92230.56;4218797;28;20292;-69
2023/03/08 04:23:34;;;;;;;18.47;8.70;;;;;;;-37.37;100.00;92224.91;4216678;28;20251;-70
2023/03/08 04:26:01;;;;;;;20.50;8.80;;;;;;;-37.39;100.00;92224.19;4219048;28;20243;-70
2023/03/08 04:28:28;;;;;;;22.97;9.00;;;;;;;-37.40;100.00;92227.53;4219478;28;20235;-68
2023/03/08 04:30:54;;;;;;;22.80;9.37;;;;;;;-37.44;100.00;92221.94;4223680;28;20235;-71
2023/03/08 04:33:21;;;;;;;20.83;10.27;;;;;;;-37.40;100.00;92222.63;4231616;28;22912;-71
2023/03/08 04:35:48;;;;;;;21.10;10.10;;;;;;;-37.44;100.00;92226.06;4225825;28;20303;-71
2023/03/08 04:38:15;;;;;;;24.30;10.00;;;;;;;-37.41;100.00;92235.72;4221813;28;21161;-71
2023/03/08 04:41:00;;;;;;;24.50;10.37;;;;;;;-37.44;100.00;92234.22;4216175;28;21248;-70
2023/03/08 04:43:28;;;;;;;23.93;10.10;;;;;;;-37.40;100.00;92239.78;4222283;28;20231;-69
2023/03/08 04:45:54;;;;;;;23.37;10.87;;;;;;;-37.41;100.00;92241.44;4218606;28;20771;-71
2023/03/08 04:48:20;;;;;;;24.80;10.93;;;;;;;-37.39;100.00;92248.75;4208964;28;21389;-69
2023/03/08 04:50:54;;;;;;;22.10;10.53;;;;;;;-37.38;100.00;92250.31;4218218;28;25458;-71
2023/03/08 04:53:22;;;;;;;22.90;11.03;;;;;;;-37.43;100.00;92242.38;4216661;28;20233;-73
2023/03/08 04:55:49;;;;;;;27.17;10.87;;;;;;;-37.44;100.00;92245.69;4199699;28;20305;-71
2023/03/08 04:58:16;;;;;;;31.10;11.50;;;;;;;-37.41;100.00;92255.38;4215942;28;20382;-75
2023/03/08 05:00:42;;;;;;;27.43;11.60;;;;;;;-37.42;100.00;92246.44;4225358;28;20232;-69
2023/03/08 05:03:09;;;;;;;28.03;11.13;;;;;;;-37.42;100.00;92257.03;4221786;28;20483;-72
2023/03/08 05:05:35;;;;;;;25.87;12.10;;;;;;;-37.41;100.00;92257.81;4214386;28;20338;-70
2023/03/08 05:08:04;;;;;;;28.37;11.53;;;;;;;-37.35;100.00;92269.84;4216523;28;23479;-71
2023/03/08 05:10:30;;;;;;;26.07;12.23;;;;;;;-37.26;100.00;92268.63;4217958;28;21773;-71
2023/03/08 05:12:57;;;;;;;23.40;11.43;;;;;;;-37.31;100.00;92266.34;4210428;28;25427;-69
2023/03/08 05:15:24;;;;;;;27.37;12.43;;;;;;;-37.33;100.00;92273.03;4219030;28;23400;-72
2023/03/08 05:17:50;;;;;;;24.97;12.40;;;;;;;-37.31;100.00;92278.63;4223190;28;20238;-65
2023/03/08 05:20:17;;;;;;;31.47;13.93;;;;;;;-37.32;100.00;92269.69;4213226;28;20504;-64
2023/03/08 05:22:43;;;;;;;28.83;12.63;;;;;;;-37.36;100.00;92273.13;4209320;28;20429;-67
2023/03/08 05:25:24;;;;;;;31.57;13.93;;;;;;;-37.38;100.00;92272.41;4225887;28;20866;-65
2023/03/08 05:27:51;;;;;;;27.40;13.40;;;;;;;-37.39;100.00;92278.19;4220926;28;20588;-67
2023/03/08 05:30:18;;;;;;;24.23;13.00;;;;;;;-37.34;100.00;92286.13;4219589;28;22573;-67
2023/03/08 05:32:44;;;;;;;28.03;12.87;;;;;;;-37.39;100.00;92283.09;4220058;28;20247;-72
2023/03/08 05:35:11;;;;;;;28.90;13.33;;;;;;;-37.36;100.00;92287.88;4219227;28;20255;-69
2023/03/08 05:37:37;;;;;;;31.70;12.37;;;;;;;-37.43;100.00;92291.44;4222172;28;20239;-70
2023/03/08 05:40:05;;;;;;;30.27;14.27;;;;;;;-37.41;100.00;92294.63;4228454;28;20227;-71
2023/03/08 05:42:32;;;;;;;28.17;13.40;;;;;;;-37.33;100.00;92299.19;4231754;28;25171;-69
2023/03/08 05:44:59;;;;;;;29.07;13.67;;;;;;;-37.38;100.00;92299.41;4233942;28;20290;-71
2023/03/08 05:47:25;;;;;;;32.50;14.20;;;;;;;-37.45;100.00;92303.81;4223352;28;20243;-68
2023/03/08 05:49:52;;;;;;;28.47;14.13;;;;;;;-37.44;100.00;92307.84;4224008;28;20259;-72
2023/03/08 05:52:18;;;;;;;29.57;13.13;;;;;;;-37.42;100.00;92307.78;4219158;28;20240;-69
2023/03/08 05:54:45;;;;;;;23.03;12.67;;;;;;;-37.47;100.00;92315.34;4231998;28;20335;-70
2023/03/08 05:57:11;;;;;;;25.77;11.83;;;;;;;-37.50;100.00;92319.56;4230187;28;21582;-76
2023/03/08 05:59:38;;;;;;;30.83;13.27;;;;;;;-37.50;100.00;92320.38;4218247;28;20265;-71
2023/03/08 06:02:04;;;;;;;27.07;11.93;;;;;;;-37.59;100.00;92320.78;4218623;28;20764;-71
2023/03/08 06:04:31;;;;;;;25.80;11.77;;;;;;;-37.54;100.00;92320.59;4227035;28;20269;-70
2023/03/08 06:06:58;;;;;;;23.43;11.43;;;;;;;-37.60;100.00;92323.31;4215808;28;21673;-71
2023/03/08 06:09:25;;;;;;;22.63;10.63;;;;;;;-37.57;100.00;92343.59;4231278;28;20244;-69
2023/03/08 06:11:51;;;;;;;24.43;10.90;;;;;;;-37.50;100.00;92344.13;4229102;28;20261;-68
2023/03/08 06:14:18;;;;;;;22.87;10.90;;;;;;;-37.51;100.00;92345.00;4223684;28;20223;-69
2023/03/08 06:16:47;;;;;;;25.07;10.50;;;;;;;-37.47;100.00;92343.97;4237829;28;23289;-68
2023/03/08 06:19:15;;;;;;;27.00;11.97;;;;;;;-37.42;100.00;92354.41;4221118;28;20226;-68
2023/03/08 06:21:41;;;;;;;24.00;10.73;;;;;;;-37.38;100.00;92358.31;4220266;28;21271;-70
2023/03/08 06:24:08;;;;;;;28.57;10.13;;;;;;;-37.38;100.00;92357.53;4216633;28;20247;-68
2023/03/08 06:26:35;;;;;;;20.27;9.13;;;;;;;-37.31;100.00;92354.72;4234747;28;20394;-70
2023/03/08 06:29:02;;;;;;;22.60;9.30;;;;;;;-37.33;100.00;92358.13;4221097;28;20465;-68
2023/03/08 06:31:29;;;;;;;20.43;9.03;;;;;;;-37.29;100.00;92367.75;4233921;28;25315;-68
2023/03/08 06:33:56;;;;;;;18.63;8.77;;;;;;;-37.33;100.00;92367.94;4210013;28;20240;-68
2023/03/08 06:36:22;;;;;;;22.70;9.03;;;;;;;-37.35;100.00;92372.94;4236688;28;22861;-65
2023/03/08 06:38:49;;;;;;;19.50;9.13;;;;;;;-37.37;100.00;92379.56;4210856;28;20235;-66
2023/03/08 06:41:17;;;;;;;22.77;10.13;;;;;;;-37.42;100.00;92377.31;4215007;28;20242;-65
2023/03/08 06:43:43;;;;;;;17.27;8.53;;;;;;;-37.41;100.00;92387.91;4222345;28;20295;-67
2023/03/08 06:46:12;;;;;;;19.90;9.40;;;;;;;-37.35;100.00;92391.78;4228542;28;22247;-65
2023/03/08 06:48:40;;;;;;;21.80;9.23;;;;;;;-37.38;100.00;92392.69;4213470;28;20234;-65
2023/03/08 06:51:06;;;;;;;26.30;9.47;;;;;;;-37.43;100.00;92405.13;4235169;28;20298;-69
2023/03/08 06:53:37;;;;;;;17.10;8.73;;;;;;;-37.42;100.00;92405.97;4241072;28;20246;-67
2023/03/08 06:56:05;;;;;;;18.03;8.50;;;;;;;-37.46;100.00;92400.38;4215058;28;20236;-68
2023/03/08 06:58:33;;;;;;;17.77;8.90;;;;;;;-37.49;100.00;92390.69;4228793;28;22118;-70
2023/03/08 07:00:59;;;;;;;20.53;8.47;;;;;;;-37.44;100.00;92402.78;4227445;28;21826;-67
2023/03/08 07:03:26;;;;;;;17.87;8.43;;;;;;;-37.42;100.00;92398.59;4219759;28;20376;-68
2023/03/08 07:05:57;;;;;;;21.67;9.20;;;;;;;-37.43;100.00;92395.31;4216227;28;20243;-68
2023/03/08 07:08:24;;;;;;;18.97;8.43;;;;;;;-37.30;100.00;92404.66;4227060;28;21730;-68
2023/03/08 07:10:50;;;;;;;22.40;8.03;;;;;;;-37.27;100.00;92404.50;4216913;28;23188;-67
2023/03/08 07:13:17;;;;;;;16.93;7.93;;;;;;;-37.35;100.00;92404.06;4216988;28;20348;-67
2023/03/08 07:15:44;;;;;;;19.17;8.47;;;;;;;-37.27;100.00;92410.22;4206650;28;23937;-67
2023/03/08 07:18:10;;;;;;;14.37;7.60;;;;;;;-37.26;100.00;92411.81;4219936;28;20235;-66
2023/03/08 07:20:38;;;;;;;19.63;7.63;;;;;;;-37.27;100.00;92410.22;4256290;28;21817;-67
2023/03/08 07:23:05;;;;;;;22.67;8.93;;;;;;;-37.22;100.00;92413.25;4216832;28;20238;-67
2023/03/08 07:25:31;;;;;;;19.40;8.83;;;;;;;-37.23;100.00;92409.22;4226463;28;22302;-69
2023/03/08 07:27:59;;;;;;;20.40;8.60;;;;;;;-37.19;99.80;92414.81;4241302;28;20226;-67
2023/03/08 07:30:25;;;;;;;23.50;8.77;;;;;;;-37.14;100.00;92414.59;4202337;28;20238;-67
2023/03/08 07:32:53;;;;;;;23.40;8.13;;;;;;;-37.03;99.40;92417.38;4222468;28;21452;-66
2023/03/08 07:35:19;;;;;;;21.50;8.93;;;;;;;-36.78;99.53;92413.00;4225986;28;21657;-68
2023/03/08 07:37:47;;;;;;;17.93;7.53;;;;;;;-36.60;97.92;92415.53;4231853;28;23089;-65
2023/03/08 07:40:15;;;;;;;19.40;8.03;;;;;;;-36.22;95.09;92415.44;4213382;28;20334;-68
2023/03/08 07:42:43;;;;;;;26.53;7.83;;;;;;;-35.73;93.26;92432.81;4211559;28;20301;-66
2023/03/08 07:45:10;;;;;;;21.17;8.03;;;;;;;-34.94;88.12;92432.25;4247030;28;20850;-68
2023/03/08 07:47:37;;;;;;;14.73;5.90;;;;;;;-35.18;86.51;92441.66;4235596;28;21796;-67
2023/03/08 07:50:04;;;;;;;15.50;6.57;;;;;;;-35.25;88.41;92436.22;4227650;28;20327;-68
2023/03/08 07:52:30;;;;;;;13.07;5.77;;;;;;;-34.57;82.54;92455.00;4255480;28;20273;-67
2023/03/08 07:54:57;;;;;;;14.27;5.80;;;;;;;-32.56;74.29;92463.78;4226884;28;21447;-68
2023/03/08 07:57:24;;;;;;;9.83;4.87;;;;;;;-32.32;71.73;92468.97;4234996;28;20258;-66
2023/03/08 07:59:50;;;;;;;10.93;5.33;;;;;;;-33.18;74.19;92466.50;4217317;28;20311;-67
2023/03/08 08:02:19;;;;;;;11.37;5.63;;;;;;;-33.43;75.01;92469.50;4249982;28;20421;-68
2023/03/08 08:04:46;;;;;;;11.47;4.90;;;;;;;-32.32;68.65;92486.31;4218852;28;20524;-68
2023/03/08 08:07:15;;;;;;;11.63;4.83;;;;;;;-31.97;67.09;92485.88;4231157;28;20259;-68
2023/03/08 08:09:41;;;;;;;12.53;4.93;;;;;;;-32.20;67.40;92494.69;4215806;28;23181;-66
2023/03/08 08:12:09;;;;;;;7.83;4.20;;;;;;;-31.98;64.49;92486.78;4229951;28;25556;-67
2023/03/08 08:14:36;;;;;;;7.90;3.90;;;;;;;-30.34;59.48;92499.59;4240339;28;22019;-67
2023/03/08 08:17:03;;;;;;;12.27;5.00;;;;;;;-30.32;57.22;92500.28;4240848;28;21817;-66
2023/03/08 08:19:30;;;;;;;10.93;3.83;;;;;;;-29.92;56.27;92507.56;4253265;28;20319;-68
2023/03/08 08:21:57;;;;;;;11.67;4.37;;;;;;;-29.70;52.39;92519.38;4234182;28;20241;-66
2023/03/08 08:24:25;;;;;;;13.27;3.97;;;;;;;-30.74;56.18;92501.38;4231766;28;20296;-69
2023/03/08 08:26:51;;;;;;;9.07;3.80;;;;;;;-30.32;53.10;92520.16;4235260;28;21830;-70
2023/03/08 08:29:18;;;;;;;10.03;4.10;;;;;;;-29.99;51.99;92513.06;4259833;28;21208;-77
2023/03/08 08:31:45;;;;;;;10.17;4.20;;;;;;;-31.88;57.82;92507.59;4218812;28;21456;-68
2023/03/08 08:34:12;;;;;;;17.43;4.80;;;;;;;-32.41;63.38;92504.16;4238913;28;20368;-68
2023/03/08 08:36:39;;;;;;;12.90;4.63;;;;;;;-31.63;60.76;92511.91;4260025;28;20232;-66
2023/03/08 08:39:05;;;;;;;13.40;4.37;;;;;;;-32.38;62.00;92508.91;4217764;28;21784;-65
2023/03/08 08:41:32;;;;;;;8.33;4.30;;;;;;;-32.92;63.80;92516.94;4226326;28;22365;-68
2023/03/08 08:43:59;;;;;;;11.73;4.57;;;;;;;-32.30;63.59;92515.03;4233597;28;20240;-67
2023/03/08 08:46:26;;;;;;;9.40;4.73;;;;;;;-31.21;58.92;92510.91;4252913;28;20228;-69
2023/03/08 08:48:54;;;;;;;10.47;4.00;;;;;;;-31.22;56.32;92529.19;4227051;28;20232;-66
2023/03/08 08:51:21;;;;;;;6.07;3.73;;;;;;;-32.49;58.01;92527.66;4222514;28;20335;-68
2023/03/08 08:53:48;;;;;;;12.00;4.30;;;;;;;-32.43;57.74;92523.25;4220181;28;20651;-67
2023/03/08 08:56:22;;;;;;;8.27;3.67;;;;;;;-31.22;55.78;92521.75;4228530;28;20256;-67
2023/03/08 08:58:55;;;;;;;13.53;4.00;;;;;;;-29.88;50.99;92538.78;4223665;28;20231;-68
2023/03/08 09:01:24;;;;;;;14.40;3.97;;;;;;;-31.04;54.47;92528.94;4220036;28;20230;-67
2023/03/08 09:03:51;;;;;;;7.20;3.60;;;;;;;-32.15;57.88;92522.44;4222567;28;22283;-66
2023/03/08 09:06:20;;;;;;;9.87;3.80;;;;;;;-32.58;59.85;92528.22;4223683;28;20341;-69
2023/03/08 09:08:51;;;;;;;11.80;3.73;;;;;;;-33.50;62.04;92518.47;4208509;28;20414;-67
2023/03/08 09:11:18;;;;;;;7.63;3.53;;;;;;;-33.92;64.70;92510.00;4226204;28;22591;-67
2023/03/08 09:13:45;;;;;;;9.17;3.47;;;;;;;-33.67;66.54;92511.19;4238119;28;20250;-67
2023/03/08 09:16:23;;;;;;;12.20;3.60;;;;;;;-33.11;62.86;92520.44;4215051;28;20229;-67
2023/03/08 09:18:51;;;;;;;10.13;3.80;;;;;;;-33.21;63.93;92523.50;4222122;28;20310;-69
2023/03/08 09:21:18;;;;;;;10.13;4.00;;;;;;;-33.54;64.93;92510.44;4274557;28;20407;-67
2023/03/08 09:23:45;;;;;;;19.07;3.80;;;;;;;-33.60;64.45;92508.31;4235929;28;20258;-67
2023/03/08 09:26:12;;;;;;;14.67;4.27;;;;;;;-33.50;65.35;92513.50;4242609;28;20665;-68
2023/03/08 09:28:38;;;;;;;8.67;4.17;;;;;;;-33.64;65.52;92511.03;4250834;28;22304;-66
2023/03/08 09:31:13;;;;;;;8.83;3.80;;;;;;;-34.03;65.37;92522.91;4222900;28;20236;-67
2023/03/08 09:33:50;;;;;;;11.80;3.20;;;;;;;-33.80;64.70;92516.78;4210111;28;20288;-66
2023/03/08 09:36:18;;;;;;;7.87;3.23;;;;;;;-34.37;65.95;92511.53;4204627;28;22196;-67
2023/03/08 09:38:47;;;;;;;8.27;3.53;;;;;;;-34.49;67.88;92497.34;4215819;28;20237;-65
2023/03/08 09:41:35;;;;;;;11.33;3.70;;;;;;;-34.48;66.67;92499.72;4232401;28;20260;-67
2023/03/08 09:44:33;;;;;;;9.13;3.10;;;;;;;-34.18;66.81;92499.03;4224111;28;20239;-65
2023/03/08 09:47:02;;;;;;;9.73;3.77;;;;;;;-34.21;65.67;92497.53;4216588;28;21458;-66
2023/03/08 09:49:31;;;;;;;7.97;3.50;;;;;;;-34.33;66.53;92490.75;4217212;28;20291;-65
2023/03/08 09:52:20;;;;;;;11.50;4.43;;;;;;;-34.22;68.61;92495.13;4200497;28;20240;-65
2023/03/08 09:54:47;;;;;;;10.40;4.17;;;;;;;-34.14;68.46;92493.06;4218803;28;20240;-66
2023/03/08 09:57:20;;;;;;;9.30;3.80;;;;;;;-33.89;66.56;92497.50;4203730;28;20245;-65
2023/03/08 09:59:55;;;;;;;8.17;3.27;;;;;;;-34.23;65.73;92504.22;4217804;28;20321;-66
2023/03/08 10:02:29;;;;;;;8.47;3.10;;;;;;;-34.12;64.95;92497.94;4233981;28;21684;-66
2023/03/08 10:05:01;;;;;;;10.70;3.10;;;;;;;-34.45;62.79;92493.84;4205951;28;22748;-65
2023/03/08 10:08:02;;;;;;;8.53;3.13;;;;;;;-34.83;65.33;92503.97;4201804;28;20246;-66
2023/03/08 10:10:44;;;;;;;10.70;3.40;;;;;;;-34.57;62.98;92500.19;4221496;28;20308;-65
2023/03/08 10:13:36;;;;;;;10.47;3.47;;;;;;;-34.72;63.85;92506.69;4217736;28;20270;-67
2023/03/08 10:16:15;;;;;;;5.50;3.00;;;;;;;-34.93;64.95;92492.97;4210782;28;20229;-66
2023/03/08 10:18:43;;;;;;;10.60;3.57;;;;;;;-34.82;65.46;92500.63;4206624;28;20355;-65
2023/03/08 10:21:12;;;;;;;11.57;3.50;;;;;;;-34.89;64.43;92491.97;4205678;28;20761;-67
2023/03/08 10:23:40;;;;;;;7.83;3.33;;;;;;;-34.66;64.47;92506.41;4205360;28;20225;-66
2023/03/08 10:26:11;;;;;;;6.97;2.80;;;;;;;-34.61;61.08;92520.97;4210940;28;20235;-68
2023/03/08 10:28:38;;;;;;;6.90;2.83;;;;;;;-34.59;66.19;92506.91;4219394;28;20240;-47
2023/03/08 10:31:20;;;;;;;9.77;3.10;;;;;;;-34.60;63.29;92517.63;4203043;28;20287;-69
2023/03/08 10:33:49;;;;;;;12.50;3.77;;;;;;;-34.81;64.27;92502.22;4205120;28;20251;-70
2023/03/08 10:36:19;;;;;;;12.77;3.50;;;;;;;-35.00;64.26;92507.25;4202447;28;20792;-69
2023/03/08 10:39:06;;;;;;;11.97;4.07;;;;;;;-35.17;65.38;92509.78;4205643;28;20269;-69
2023/03/08 10:41:39;;;;;;;12.63;4.07;;;;;;;-35.14;66.58;92507.94;4208780;28;20360;-72
2023/03/08 10:44:12;;;;;;;10.17;3.90;;;;;;;-35.04;67.32;92509.09;4219922;28;20734;-70
2023/03/08 10:46:46;;;;;;;9.23;3.90;;;;;;;-35.13;67.66;92512.03;4198683;28;21629;-69
2023/03/08 10:49:17;;;;;;;10.83;3.83;;;;;;;-35.13;68.75;92502.16;4184427;28;20671;-69
2023/03/08 10:51:58;;;;;;;14.77;4.40;;;;;;;-35.06;69.33;92497.72;4208918;28;22444;-70
2023/03/08 10:54:26;;;;;;;15.13;4.27;;;;;;;-34.98;68.95;92509.66;4193375;28;21633;-70
2023/03/08 10:56:52;;;;;;;9.57;4.33;;;;;;;-35.02;69.25;92492.53;4197755;28;20239;-71
2023/03/08 10:59:26;;;;;;;10.20;4.27;;;;;;;-35.02;68.37;92504.84;4227351;28;21834;-70
2023/03/08 11:01:56;;;;;;;9.47;4.13;;;;;;;-34.99;69.23;92508.03;4205315;28;20341;-72
2023/03/08 11:04:24;;;;;;;11.87;3.97;;;;;;;-35.09;68.71;92510.19;4200665;28;20272;-72
2023/03/08 11:06:50;;;;;;;8.80;3.70;;;;;;;-35.10;69.47;92506.94;4219629;28;20244;-71
2023/03/08 11:09:26;;;;;;;10.73;3.93;;;;;;;-35.07;69.91;92511.69;4210959;28;20422;-69
2023/03/08 11:11:55;;;;;;;11.87;4.30;;;;;;;-35.05;69.92;92509.94;4231712;28;22042;-70
2023/03/08 11:14:22;;;;;;;11.70;4.60;;;;;;;-35.06;70.45;92500.97;4220578;28;20246;-73
2023/03/08 11:16:54;;;;;;;9.63;3.77;;;;;;;-35.27;70.76;92509.41;4218008;28;20242;-71
2023/03/08 11:19:45;;;;;;;13.20;3.43;;;;;;;-35.24;67.97;92506.81;4209068;28;20524;-69